Terminal Aerodrome Forecast
Issued by NWS

Home | Current Version | Previous Version | Text Only | Print | Product List | Glossary On
Versions: 1 2 3 4 5 6 7 8 9 10 11 12 13 14 15 16 17
000
FTAK31 PAFA 261738
TAFASC
TAF
PASC 261738Z 2618/2718 21003KT P6SM FEW004 OVC080
     FM262200 08008KT P6SM FEW080
     FM270900 12007KT 3/4SM -DZ BR FEW006 SCT100
     FM271200 13007KT 1/2SM FG BKN004=

USA.gov is the U.S. government's official web portal to all federal, state and local government web resources and services.